createdAt,value
2022-12-15T00:02:25.374Z,24.87
2022-12-15T00:05:10.884Z,26.00
2022-12-15T00:07:56.215Z,26.57
2022-12-15T00:10:41.638Z,26.33
2022-12-15T00:13:32.072Z,23.33
2022-12-15T00:16:18.267Z,25.30
2022-12-15T00:19:04.135Z,22.87
2022-12-15T00:21:50.057Z,26.40
2022-12-15T00:24:35.604Z,27.37
2022-12-15T00:27:21.424Z,26.90
2022-12-15T00:30:06.938Z,25.50
2022-12-15T00:32:52.925Z,26.47
2022-12-15T00:35:38.841Z,26.47
2022-12-15T00:38:29.511Z,23.50
2022-12-15T00:40:59.907Z,29.60
2022-12-15T00:43:29.648Z,25.20
2022-12-15T00:46:15.753Z,25.00
2022-12-15T00:48:43.800Z,22.33
2022-12-15T00:51:11.327Z,25.30
2022-12-15T00:53:57.582Z,26.33
2022-12-15T00:56:43.832Z,25.50
2022-12-15T00:59:29.716Z,25.30
2022-12-15T01:02:15.905Z,26.40
2022-12-15T01:05:01.150Z,25.63
2022-12-15T01:07:49.939Z,25.97
2022-12-15T01:10:38.625Z,25.53
2022-12-15T01:13:25.261Z,26.80
2022-12-15T01:16:10.933Z,25.80
2022-12-15T01:18:56.393Z,23.40
2022-12-15T01:21:25.528Z,24.80
2022-12-15T01:23:53.473Z,24.57
2022-12-15T01:26:20.589Z,26.20
2022-12-15T01:28:47.620Z,25.20
2022-12-15T01:31:15.003Z,25.23
2022-12-15T01:33:44.918Z,25.13
2022-12-15T01:36:12.044Z,24.10
2022-12-15T01:38:39.004Z,24.53
2022-12-15T01:41:10.776Z,25.07
2022-12-15T01:43:40.732Z,24.47
2022-12-15T01:46:18.221Z,23.70
2022-12-15T01:49:14.696Z,25.77
2022-12-15T01:51:48.265Z,24.60
2022-12-15T01:54:32.657Z,24.97
2022-12-15T01:57:07.047Z,26.63
2022-12-15T01:59:39.411Z,25.97
2022-12-15T02:02:07.011Z,26.50
2022-12-15T02:04:34.341Z,26.60
2022-12-15T02:07:01.304Z,25.67
2022-12-15T02:09:28.861Z,27.20
2022-12-15T02:12:05.876Z,29.47
2022-12-15T02:15:00.530Z,26.50
2022-12-15T02:17:45.194Z,29.33
2022-12-15T02:20:45.828Z,28.80
2022-12-15T02:23:34.146Z,31.97
2022-12-15T02:26:42.417Z,30.03
2022-12-15T02:29:18.615Z,27.90
2022-12-15T02:31:55.428Z,28.53
2022-12-15T02:34:34.990Z,27.97
2022-12-15T02:37:30.567Z,27.87
2022-12-15T02:39:57.724Z,28.13
2022-12-15T02:42:27.113Z,25.60
2022-12-15T02:45:00.171Z,26.80
2022-12-15T02:47:56.526Z,25.00
2022-12-15T02:50:50.069Z,25.47
2022-12-15T02:54:02.923Z,25.70
2022-12-15T02:56:32.517Z,25.77
2022-12-15T02:59:45.374Z,27.50
2022-12-15T03:02:13.791Z,27.27
2022-12-15T03:04:43.408Z,25.90
2022-12-15T03:07:10.828Z,27.10
2022-12-15T03:09:37.858Z,26.60
2022-12-15T03:12:05.237Z,27.00
2022-12-15T03:14:32.919Z,30.30
2022-12-15T03:17:00.165Z,29.67
2022-12-15T03:19:27.349Z,26.77
2022-12-15T03:21:54.331Z,27.90
2022-12-15T03:24:21.286Z,29.20
2022-12-15T03:26:51.032Z,26.03
2022-12-15T03:29:18.589Z,28.40
2022-12-15T03:31:45.886Z,27.30
2022-12-15T03:34:17.089Z,27.47
2022-12-15T03:36:44.087Z,28.50
2022-12-15T03:39:11.059Z,25.57
2022-12-15T03:41:38.182Z,25.17
2022-12-15T03:44:05.305Z,26.80
2022-12-15T03:46:32.215Z,24.87
2022-12-15T03:48:59.274Z,23.10
2022-12-15T03:51:26.217Z,25.77
2022-12-15T03:53:53.701Z,27.50
2022-12-15T03:56:20.813Z,24.07
2022-12-15T03:58:47.845Z,25.93
2022-12-15T04:01:30.202Z,25.37
2022-12-15T04:04:00.835Z,25.27
2022-12-15T04:06:29.289Z,26.10
2022-12-15T04:08:56.692Z,25.30
2022-12-15T04:11:23.681Z,29.10
2022-12-15T04:13:50.700Z,24.20
2022-12-15T04:16:20.100Z,26.70
2022-12-15T04:19:07.981Z,26.50
2022-12-15T04:21:34.953Z,28.47
2022-12-15T04:24:20.603Z,24.67
2022-12-15T04:27:05.865Z,23.63
2022-12-15T04:29:51.311Z,24.67
2022-12-15T04:32:36.924Z,25.13
2022-12-15T04:35:22.854Z,23.03
2022-12-15T04:38:08.316Z,24.60
2022-12-15T04:40:54.248Z,24.10
2022-12-15T04:43:39.772Z,24.93
2022-12-15T04:46:25.348Z,23.10
2022-12-15T04:49:10.627Z,22.50
2022-12-15T04:51:56.626Z,21.20
2022-12-15T04:54:41.841Z,24.80
2022-12-15T04:57:27.159Z,24.03
2022-12-15T05:00:12.652Z,22.47
2022-12-15T05:02:58.154Z,22.47
2022-12-15T05:05:43.420Z,20.83
2022-12-15T05:08:28.854Z,21.90
2022-12-15T05:11:14.144Z,22.03
2022-12-15T05:13:59.380Z,26.17
2022-12-15T05:16:44.986Z,26.47
2022-12-15T05:19:30.549Z,25.73
2022-12-15T05:22:15.765Z,24.13
2022-12-15T05:25:01.287Z,24.90
2022-12-15T05:27:46.783Z,24.40
2022-12-15T05:30:32.533Z,28.33
2022-12-15T05:33:04.748Z,27.07
2022-12-15T05:35:31.766Z,24.07
2022-12-15T05:37:58.745Z,27.77
2022-12-15T05:40:25.754Z,26.03
2022-12-15T05:42:52.683Z,22.93
2022-12-15T05:45:19.594Z,23.50
2022-12-15T05:47:54.351Z,23.97
2022-12-15T05:50:22.751Z,22.87
2022-12-15T05:52:50.395Z,23.37
2022-12-15T05:55:18.931Z,25.87
2022-12-15T05:57:52.619Z,22.63
2022-12-15T06:00:20.498Z,24.87
2022-12-15T06:02:47.584Z,22.33
2022-12-15T06:05:17.701Z,22.50
2022-12-15T06:07:44.664Z,24.20
2022-12-15T06:10:11.818Z,27.20
2022-12-15T06:12:38.820Z,25.73
2022-12-15T06:15:06.292Z,26.87
2022-12-15T06:17:33.280Z,25.40
2022-12-15T06:20:00.197Z,20.20
2022-12-15T06:22:29.785Z,23.60
2022-12-15T06:24:56.894Z,21.00
2022-12-15T06:27:23.977Z,20.83
2022-12-15T06:29:50.961Z,22.80
2022-12-15T06:32:17.900Z,23.63
2022-12-15T06:34:44.900Z,21.37
2022-12-15T06:37:12.338Z,22.80
2022-12-15T06:39:39.347Z,21.57
2022-12-15T06:42:06.362Z,22.23
2022-12-15T06:44:33.294Z,22.27
2022-12-15T06:47:00.288Z,22.97
2022-12-15T06:49:27.391Z,23.63
2022-12-15T06:51:54.363Z,24.17
2022-12-15T06:54:21.296Z,22.03
2022-12-15T06:56:49.895Z,22.97
2022-12-15T06:59:17.104Z,26.80
2022-12-15T07:01:44.287Z,24.67
2022-12-15T07:04:11.838Z,21.70
2022-12-15T07:06:39.801Z,22.57
2022-12-15T07:09:12.995Z,24.27
2022-12-15T07:11:40.513Z,25.80
2022-12-15T07:14:07.593Z,22.60
2022-12-15T07:16:34.778Z,22.40
2022-12-15T07:19:01.883Z,24.47
2022-12-15T07:21:28.844Z,22.53
2022-12-15T07:23:57.315Z,23.53
2022-12-15T07:26:25.761Z,24.10
2022-12-15T07:28:53.816Z,22.90
2022-12-15T07:31:22.155Z,24.23
2022-12-15T07:33:49.377Z,27.20
2022-12-15T07:36:16.379Z,23.70
2022-12-15T07:38:45.404Z,23.70
2022-12-15T07:41:18.563Z,24.50
2022-12-15T07:43:46.971Z,24.40
2022-12-15T07:46:14.072Z,23.73
2022-12-15T07:48:41.126Z,25.70
2022-12-15T07:51:15.209Z,24.50
2022-12-15T07:53:44.297Z,25.77
2022-12-15T07:56:11.219Z,22.80
2022-12-15T07:58:38.852Z,21.43
2022-12-15T08:01:10.557Z,19.60
2022-12-15T08:03:39.138Z,22.87
2022-12-15T08:06:13.143Z,24.50
2022-12-15T08:08:41.519Z,26.33
2022-12-15T08:11:11.795Z,25.30
2022-12-15T08:16:27.834Z,23.97
2022-12-15T08:18:57.055Z,22.23
2022-12-15T08:21:24.205Z,26.43
2022-12-15T08:23:51.472Z,22.93
2022-12-15T08:26:21.401Z,25.30
2022-12-15T08:28:50.799Z,25.63
2022-12-15T08:31:22.112Z,21.73
2022-12-15T08:33:50.452Z,23.30
2022-12-15T08:36:19.878Z,23.17
2022-12-15T08:38:47.953Z,23.70
2022-12-15T08:41:19.760Z,24.80
2022-12-15T08:43:49.424Z,25.27
2022-12-15T08:46:23.435Z,23.83
2022-12-15T08:48:52.843Z,23.40
2022-12-15T08:51:21.882Z,23.60
2022-12-15T08:53:49.427Z,25.40
2022-12-15T08:56:20.133Z,23.40
2022-12-15T08:58:49.594Z,25.50
2022-12-15T09:01:24.180Z,27.43
2022-12-15T09:03:54.197Z,22.60
2022-12-15T09:06:27.799Z,25.60
2022-12-15T09:08:57.294Z,23.30
2022-12-15T09:11:25.913Z,26.30
2022-12-15T09:13:53.232Z,24.50
2022-12-15T09:16:21.801Z,25.10
2022-12-15T09:18:54.830Z,23.77
2022-12-15T09:21:26.212Z,25.07
2022-12-15T09:24:00.132Z,26.27
2022-12-15T09:26:29.812Z,25.73
2022-12-15T09:28:57.823Z,21.63
2022-12-15T09:31:32.580Z,26.40
2022-12-15T09:34:01.075Z,25.30
2022-12-15T09:36:30.108Z,25.30
2022-12-15T09:38:57.113Z,23.70
2022-12-15T09:41:28.012Z,24.27
2022-12-15T09:44:15.776Z,24.53
2022-12-15T09:47:01.001Z,25.33
2022-12-15T09:49:50.477Z,25.00
2022-12-15T09:52:29.293Z,24.00
2022-12-15T09:54:58.677Z,24.93
2022-12-15T09:57:37.581Z,21.33
2022-12-15T10:00:44.640Z,22.93
2022-12-15T10:03:22.465Z,25.53
2022-12-15T10:06:18.107Z,25.83
2022-12-15T10:08:57.519Z,23.63
2022-12-15T10:12:02.120Z,24.97
2022-12-15T10:14:39.530Z,23.93
2022-12-15T10:17:36.785Z,22.57
2022-12-15T10:20:27.059Z,23.90
2022-12-15T10:22:56.843Z,24.67
2022-12-15T10:25:31.045Z,24.00
2022-12-15T10:28:43.106Z,24.30
2022-12-15T10:31:33.945Z,24.80
2022-12-15T10:34:27.002Z,26.27
2022-12-15T10:36:56.334Z,23.33
2022-12-15T10:39:26.551Z,23.90
2022-12-15T10:42:18.349Z,24.47
2022-12-15T10:44:50.405Z,23.20
2022-12-15T10:47:29.908Z,24.60
2022-12-15T10:50:24.982Z,25.63
2022-12-15T10:52:52.466Z,25.63
2022-12-15T10:55:37.262Z,26.60
2022-12-15T10:58:19.406Z,21.87
2022-12-15T11:00:50.914Z,29.63
2022-12-15T11:03:26.520Z,23.70
2022-12-15T11:05:56.782Z,24.80
2022-12-15T11:08:24.953Z,24.60
2022-12-15T11:11:17.876Z,24.83
2022-12-15T11:14:10.330Z,27.60
2022-12-15T11:16:48.740Z,24.17
2022-12-15T11:19:35.069Z,23.83
2022-12-15T11:22:14.379Z,23.20
2022-12-15T11:24:52.973Z,21.47
2022-12-15T11:27:35.582Z,20.90
2022-12-15T11:30:18.516Z,22.53
2022-12-15T11:32:54.021Z,23.77
2022-12-15T11:35:46.088Z,25.60
2022-12-15T11:38:42.138Z,25.77
2022-12-15T11:41:40.564Z,25.20
2022-12-15T11:44:44.878Z,25.03
2022-12-15T11:47:40.823Z,22.27
2022-12-15T11:50:41.102Z,24.10
2022-12-15T11:53:45.433Z,25.60
2022-12-15T11:56:23.758Z,23.27
2022-12-15T11:58:56.166Z,23.40
2022-12-15T12:05:33.038Z,24.43
2022-12-15T12:08:24.943Z,22.53
2022-12-15T12:11:06.594Z,20.63
2022-12-15T12:14:16.538Z,23.83
2022-12-15T12:17:01.221Z,19.83
2022-12-15T12:19:37.694Z,22.07
2022-12-15T12:22:17.194Z,21.67
2022-12-15T12:25:02.459Z,23.87
2022-12-15T12:27:40.365Z,23.10
2022-12-15T12:30:23.940Z,22.27
2022-12-15T12:33:31.413Z,26.90
2022-12-15T12:36:06.545Z,24.97
2022-12-15T12:38:50.452Z,22.60
2022-12-15T12:42:03.863Z,22.43
2022-12-15T12:44:38.526Z,23.20
2022-12-15T12:47:24.976Z,23.93
2022-12-15T12:50:12.914Z,21.70
2022-12-15T12:52:56.342Z,23.97
2022-12-15T12:55:42.538Z,25.00
2022-12-15T12:58:45.581Z,25.27
2022-12-15T13:01:32.307Z,21.50
2022-12-15T13:04:10.330Z,23.30
2022-12-15T13:06:40.357Z,19.67
2022-12-15T13:09:19.308Z,20.60
2022-12-15T13:11:49.377Z,20.47
2022-12-15T13:14:34.534Z,21.17
2022-12-15T13:17:26.119Z,20.73
2022-12-15T13:19:56.788Z,18.57
2022-12-15T13:22:33.505Z,23.90
2022-12-15T13:25:01.966Z,21.30
2022-12-15T13:27:37.671Z,22.10
2022-12-15T13:30:07.783Z,21.43
2022-12-15T13:32:39.781Z,19.07
2022-12-15T13:35:12.577Z,19.43
2022-12-15T13:37:59.846Z,21.20
2022-12-15T13:40:50.428Z,21.00
2022-12-15T13:43:26.432Z,21.40
2022-12-15T13:46:05.824Z,15.10
2022-12-15T13:48:45.107Z,20.50
2022-12-15T13:51:33.607Z,21.67
2022-12-15T13:54:18.269Z,22.23
2022-12-15T13:57:03.617Z,20.83
2022-12-15T13:59:33.522Z,21.73
2022-12-15T14:02:00.789Z,20.83
2022-12-15T14:04:27.885Z,17.73
2022-12-15T14:07:01.942Z,20.27
2022-12-15T14:09:34.332Z,18.70
2022-12-15T14:12:08.778Z,20.27
2022-12-15T14:14:43.638Z,17.77
2022-12-15T14:17:17.209Z,21.13
2022-12-15T14:19:51.189Z,19.90
2022-12-15T14:22:30.615Z,18.50
2022-12-15T14:25:21.494Z,21.47
2022-12-15T14:27:51.066Z,20.10
2022-12-15T14:30:32.647Z,19.87
2022-12-15T14:33:09.067Z,17.73
2022-12-15T14:35:42.229Z,21.10
2022-12-15T14:38:19.896Z,19.50
2022-12-15T14:40:50.802Z,17.00
2022-12-15T14:43:25.972Z,19.17
2022-12-15T14:46:07.354Z,18.70
2022-12-15T14:48:54.100Z,19.77
2022-12-15T14:51:25.860Z,17.07
2022-12-15T14:53:54.390Z,17.50
2022-12-15T14:56:30.335Z,19.23
2022-12-15T14:59:04.517Z,18.67
2022-12-15T15:01:58.309Z,15.70
2022-12-15T15:03:07.046Z,22.60
2022-12-15T15:04:34.116Z,19.50
2022-12-15T15:07:05.223Z,16.47
2022-12-15T15:09:40.058Z,15.67
2022-12-15T15:12:12.989Z,16.43
2022-12-15T15:15:05.441Z,16.47
2022-12-15T15:17:52.253Z,17.10
2022-12-15T15:20:34.599Z,17.63
2022-12-15T15:23:07.344Z,19.23
2022-12-15T15:25:39.386Z,16.47
2022-12-15T15:28:18.933Z,18.80
2022-12-15T15:30:51.008Z,17.13
2022-12-15T15:33:24.668Z,20.07
2022-12-15T15:35:56.059Z,17.17
2022-12-15T15:38:28.880Z,15.30
2022-12-15T15:40:59.509Z,19.10
2022-12-15T15:43:28.331Z,19.37
2022-12-15T15:46:03.454Z,17.43
2022-12-15T15:48:35.476Z,20.60
2022-12-15T15:51:05.186Z,19.07
2022-12-15T15:53:34.597Z,20.03
2022-12-15T15:56:06.610Z,17.77
2022-12-15T15:58:35.869Z,19.30
2022-12-15T16:01:08.091Z,18.70
2022-12-15T16:03:38.691Z,17.40
2022-12-15T16:06:07.571Z,19.53
2022-12-15T16:08:37.148Z,19.37
2022-12-15T16:11:04.144Z,19.50
2022-12-15T16:13:31.086Z,20.50
2022-12-15T16:15:58.052Z,19.43
2022-12-15T16:18:25.060Z,19.50
2022-12-15T16:20:52.627Z,18.00
2022-12-15T16:23:24.035Z,20.83
2022-12-15T16:25:59.520Z,20.10
2022-12-15T16:28:31.424Z,21.50
2022-12-15T16:30:58.996Z,19.17
2022-12-15T16:33:26.089Z,18.03
2022-12-15T16:35:53.963Z,15.23
2022-12-15T16:38:31.094Z,18.70
2022-12-15T16:41:06.610Z,18.40
2022-12-15T16:43:38.126Z,16.80
2022-12-15T16:46:06.646Z,17.60
2022-12-15T16:48:34.225Z,17.33
2022-12-15T16:51:02.549Z,17.87
2022-12-15T16:53:32.793Z,18.70
2022-12-15T16:56:04.343Z,18.53
2022-12-15T16:58:32.529Z,19.57
2022-12-15T17:00:59.867Z,17.80
2022-12-15T17:03:27.661Z,16.33
2022-12-15T17:05:58.834Z,20.50
2022-12-15T17:08:41.055Z,21.80
2022-12-15T17:11:17.429Z,18.23
2022-12-15T17:13:47.995Z,18.37
2022-12-15T17:16:15.111Z,17.43
2022-12-15T17:18:42.932Z,17.37
2022-12-15T17:21:24.846Z,20.20
2022-12-15T17:23:55.940Z,18.00
2022-12-15T17:26:29.482Z,18.47
2022-12-15T17:29:02.758Z,19.60
2022-12-15T17:31:35.248Z,19.20
2022-12-15T17:34:23.928Z,15.20
2022-12-15T17:36:51.316Z,20.07
2022-12-15T17:39:20.762Z,19.23
2022-12-15T17:41:59.819Z,21.10
2022-12-15T17:44:36.798Z,17.60
2022-12-15T17:47:07.594Z,19.57
2022-12-15T17:49:37.672Z,21.53
2022-12-15T17:52:26.245Z,19.50
2022-12-15T17:54:53.811Z,19.30
2022-12-15T17:57:20.843Z,18.10
2022-12-15T17:59:48.144Z,20.43
2022-12-15T18:02:15.905Z,20.73
2022-12-15T18:04:43.885Z,22.30
2022-12-15T18:07:21.534Z,21.20
2022-12-15T18:09:50.942Z,19.80
2022-12-15T18:12:24.416Z,19.70
2022-12-15T18:14:52.078Z,18.80
2022-12-15T18:17:19.899Z,18.87
2022-12-15T18:19:46.923Z,18.07
2022-12-15T18:22:24.048Z,17.10
2022-12-15T18:24:53.738Z,17.10
2022-12-15T18:27:29.119Z,18.20
2022-12-15T18:29:56.786Z,17.73
2022-12-15T18:32:26.389Z,21.50
2022-12-15T18:34:54.462Z,24.17
2022-12-15T18:37:24.554Z,22.67
2022-12-15T18:39:51.558Z,24.00
2022-12-15T18:42:22.893Z,16.93
2022-12-15T18:44:52.753Z,17.77
2022-12-15T18:47:22.965Z,20.17
2022-12-15T18:49:50.264Z,17.80
2022-12-15T18:52:20.661Z,18.43
2022-12-15T18:54:49.488Z,18.43
2022-12-15T18:57:42.741Z,17.83
2022-12-15T19:00:24.554Z,19.73
2022-12-15T19:02:57.225Z,23.60
2022-12-15T19:05:28.514Z,23.13
2022-12-15T19:08:13.224Z,17.80
2022-12-15T19:10:54.877Z,20.50
2022-12-15T19:13:32.978Z,17.60
2022-12-15T19:16:02.337Z,18.13
2022-12-15T19:18:48.048Z,21.30
2022-12-15T19:21:42.209Z,19.40
2022-12-15T19:24:44.512Z,22.13
2022-12-15T19:27:14.419Z,19.70
2022-12-15T19:29:42.650Z,20.90
2022-12-15T19:32:09.584Z,16.50
2022-12-15T19:34:36.711Z,16.47
2022-12-15T19:37:07.013Z,17.80
2022-12-15T19:39:35.175Z,20.20
2022-12-15T19:42:07.547Z,21.23
2022-12-15T19:44:37.107Z,20.20
2022-12-15T19:47:13.215Z,18.00
2022-12-15T19:49:41.680Z,17.27
2022-12-15T19:52:17.000Z,18.33
2022-12-15T19:54:46.788Z,19.10
2022-12-15T19:57:17.650Z,18.13
2022-12-15T19:59:44.975Z,17.40
2022-12-15T20:02:20.970Z,16.77
2022-12-15T20:04:49.024Z,17.70
2022-12-15T20:07:30.389Z,18.10
2022-12-15T20:09:58.162Z,16.83
2022-12-15T20:12:25.226Z,17.53
2022-12-15T20:14:52.341Z,18.87
2022-12-15T20:17:19.334Z,17.37
2022-12-15T20:19:46.329Z,19.73
2022-12-15T20:22:19.658Z,17.83
2022-12-15T20:24:47.443Z,18.67
2022-12-15T20:27:17.926Z,18.07
2022-12-15T20:29:45.536Z,19.77
2022-12-15T20:32:20.232Z,16.80
2022-12-15T20:34:47.753Z,21.57
2022-12-15T20:37:29.125Z,16.87
2022-12-15T20:39:57.864Z,17.10
2022-12-15T20:42:25.665Z,18.77
2022-12-15T20:44:54.079Z,19.47
2022-12-15T20:47:26.915Z,19.83
2022-12-15T20:49:54.960Z,18.47
2022-12-15T20:52:25.589Z,18.17
2022-12-15T20:54:53.994Z,19.67
2022-12-15T20:57:21.464Z,16.93
2022-12-15T20:59:48.446Z,17.90
2022-12-15T21:02:22.433Z,19.17
2022-12-15T21:04:51.135Z,20.20
2022-12-15T21:07:18.797Z,15.70
2022-12-15T21:09:45.896Z,17.70
2022-12-15T21:12:18.792Z,18.03
2022-12-15T21:14:45.804Z,20.03
2022-12-15T21:17:22.089Z,18.60
2022-12-15T21:19:49.705Z,20.43
2022-12-15T21:22:23.260Z,19.77
2022-12-15T21:24:53.292Z,17.93
2022-12-15T21:27:21.491Z,19.77
2022-12-15T21:29:52.655Z,18.20
2022-12-15T21:32:20.986Z,19.00
2022-12-15T21:34:47.992Z,20.60
2022-12-15T21:37:24.931Z,18.83
2022-12-15T21:39:52.041Z,19.10
2022-12-15T21:42:21.102Z,20.23
2022-12-15T21:44:48.583Z,18.73
2022-12-15T21:47:54.962Z,20.47
2022-12-15T21:50:21.971Z,19.07
2022-12-15T21:52:49.032Z,20.47
2022-12-15T21:55:23.515Z,18.20
2022-12-15T21:57:50.531Z,19.83
2022-12-15T22:00:20.374Z,21.30
2022-12-15T22:02:49.784Z,19.57
2022-12-15T22:05:32.443Z,18.73
2022-12-15T22:08:12.632Z,18.93
2022-12-15T22:10:39.715Z,19.90
2022-12-15T22:13:13.010Z,19.20
2022-12-15T22:15:40.015Z,17.93
2022-12-15T22:18:19.812Z,21.57
2022-12-15T22:20:49.971Z,19.10
2022-12-15T22:23:18.491Z,20.77
2022-12-15T22:25:47.849Z,18.50
2022-12-15T22:28:25.099Z,19.60
2022-12-15T22:30:53.998Z,20.00
2022-12-15T22:33:25.271Z,20.23
2022-12-15T22:35:54.982Z,19.63
2022-12-15T22:38:23.821Z,20.17
2022-12-15T22:40:55.610Z,20.93
2022-12-15T22:43:38.609Z,19.70
2022-12-15T22:46:10.192Z,19.93
2022-12-15T22:48:41.875Z,21.30
2022-12-15T22:51:13.611Z,18.10
2022-12-15T22:53:41.154Z,18.80
2022-12-15T22:56:25.478Z,20.90
2022-12-15T22:59:05.457Z,21.80
2022-12-15T23:01:32.494Z,21.53
2022-12-15T23:03:59.857Z,19.03
2022-12-15T23:06:27.981Z,21.60
2022-12-15T23:08:56.287Z,20.70
2022-12-15T23:11:39.642Z,20.37
2022-12-15T23:14:15.565Z,18.60
2022-12-15T23:16:44.937Z,22.27
2022-12-15T23:19:23.722Z,22.50
2022-12-15T23:21:52.023Z,19.20
2022-12-15T23:24:19.604Z,22.60
2022-12-15T23:26:47.055Z,19.07
2022-12-15T23:29:14.472Z,21.30
2022-12-15T23:31:41.613Z,20.77
2022-12-15T23:34:08.616Z,16.73
2022-12-15T23:36:35.620Z,22.90
2022-12-15T23:39:02.664Z,19.60
2022-12-15T23:41:29.585Z,20.13
2022-12-15T23:43:56.575Z,19.17
2022-12-15T23:46:23.691Z,19.00
2022-12-15T23:48:50.883Z,19.60
2022-12-15T23:51:20.368Z,18.43
2022-12-15T23:53:48.209Z,21.70
2022-12-15T23:56:22.491Z,21.70
2022-12-15T23:58:56.539Z,20.27
